Terminal Aerodrome Forecast
Issued by NWS

Home | Current Version | Previous Version | Text Only | Print | Product List | Glossary On
Versions: 1 2 3 4 5 6 7 8 9 10 11 12 13
000
FTUS43 KDTX 111700
TAFMBS
TAF
KMBS 111720Z 1118/1218 20007KT P6SM SCT200
     FM120000 19006KT P6SM SCT200
     FM121400 19008KT P6SM SCT150=

USA.gov is the U.S. government's official web portal to all federal, state and local government web resources and services.